sensor_id;sensor_type;location;lat;lon;timestamp;P1;durP1;ratioP1;P2;durP2;ratioP2
7965;SDS011;4028;43.272;26.932;2023-12-20T00:01:18;12.57;;;9.03;;
7965;SDS011;4028;43.272;26.932;2023-12-20T00:03:43;17.07;;;11.50;;
7965;SDS011;4028;43.272;26.932;2023-12-20T00:06:09;19.67;;;11.90;;
7965;SDS011;4028;43.272;26.932;2023-12-20T00:08:35;20.30;;;12.53;;
7965;SDS011;4028;43.272;26.932;2023-12-20T00:11:00;15.50;;;10.40;;
7965;SDS011;4028;43.272;26.932;2023-12-20T00:13:26;13.27;;;9.73;;
7965;SDS011;4028;43.272;26.932;2023-12-20T00:15:51;12.47;;;8.87;;
7965;SDS011;4028;43.272;26.932;2023-12-20T00:18:17;12.63;;;7.67;;
7965;SDS011;4028;43.272;26.932;2023-12-20T00:20:42;12.43;;;7.87;;
7965;SDS011;4028;43.272;26.932;2023-12-20T00:23:08;13.53;;;7.43;;
7965;SDS011;4028;43.272;26.932;2023-12-20T00:25:34;11.87;;;7.63;;
7965;SDS011;4028;43.272;26.932;2023-12-20T00:28:00;11.53;;;7.73;;
7965;SDS011;4028;43.272;26.932;2023-12-20T00:30:26;10.97;;;7.43;;
7965;SDS011;4028;43.272;26.932;2023-12-20T00:32:51;10.90;;;7.53;;
7965;SDS011;4028;43.272;26.932;2023-12-20T00:35:17;9.20;;;7.33;;
7965;SDS011;4028;43.272;26.932;2023-12-20T00:37:42;13.03;;;7.63;;
7965;SDS011;4028;43.272;26.932;2023-12-20T00:40:08;10.17;;;7.27;;
7965;SDS011;4028;43.272;26.932;2023-12-20T00:42:34;13.33;;;8.47;;
7965;SDS011;4028;43.272;26.932;2023-12-20T00:45:01;14.20;;;9.73;;
7965;SDS011;4028;43.272;26.932;2023-12-20T00:47:26;23.23;;;14.10;;
7965;SDS011;4028;43.272;26.932;2023-12-20T00:49:52;18.83;;;13.13;;
7965;SDS011;4028;43.272;26.932;2023-12-20T00:52:17;22.47;;;13.20;;
7965;SDS011;4028;43.272;26.932;2023-12-20T00:54:43;14.90;;;10.60;;
7965;SDS011;4028;43.272;26.932;2023-12-20T00:57:09;15.07;;;10.70;;
7965;SDS011;4028;43.272;26.932;2023-12-20T00:59:35;17.07;;;12.07;;
7965;SDS011;4028;43.272;26.932;2023-12-20T01:02:00;16.20;;;11.60;;
7965;SDS011;4028;43.272;26.932;2023-12-20T01:04:26;13.60;;;8.83;;
7965;SDS011;4028;43.272;26.932;2023-12-20T01:06:52;14.17;;;9.67;;
7965;SDS011;4028;43.272;26.932;2023-12-20T01:09:18;13.03;;;8.17;;
7965;SDS011;4028;43.272;26.932;2023-12-20T01:11:43;12.03;;;8.40;;
7965;SDS011;4028;43.272;26.932;2023-12-20T01:14:09;16.93;;;8.93;;
7965;SDS011;4028;43.272;26.932;2023-12-20T01:16:35;13.17;;;9.43;;
7965;SDS011;4028;43.272;26.932;2023-12-20T01:19:00;13.40;;;9.57;;
7965;SDS011;4028;43.272;26.932;2023-12-20T01:21:26;13.67;;;8.40;;
7965;SDS011;4028;43.272;26.932;2023-12-20T01:23:51;16.00;;;9.27;;
7965;SDS011;4028;43.272;26.932;2023-12-20T01:26:16;15.27;;;8.73;;
7965;SDS011;4028;43.272;26.932;2023-12-20T01:28:42;12.53;;;8.77;;
7965;SDS011;4028;43.272;26.932;2023-12-20T01:31:08;12.17;;;9.10;;
7965;SDS011;4028;43.272;26.932;2023-12-20T01:33:34;14.43;;;10.27;;
7965;SDS011;4028;43.272;26.932;2023-12-20T01:35:59;13.53;;;10.17;;
7965;SDS011;4028;43.272;26.932;2023-12-20T01:38:25;16.23;;;9.83;;
7965;SDS011;4028;43.272;26.932;2023-12-20T01:40:50;15.20;;;10.83;;
7965;SDS011;4028;43.272;26.932;2023-12-20T01:43:16;14.70;;;10.97;;
7965;SDS011;4028;43.272;26.932;2023-12-20T01:45:41;16.60;;;10.97;;
7965;SDS011;4028;43.272;26.932;2023-12-20T01:48:07;14.10;;;9.73;;
7965;SDS011;4028;43.272;26.932;2023-12-20T01:50:34;15.03;;;9.90;;
7965;SDS011;4028;43.272;26.932;2023-12-20T01:53:01;15.50;;;10.30;;
7965;SDS011;4028;43.272;26.932;2023-12-20T01:55:27;11.97;;;9.20;;
7965;SDS011;4028;43.272;26.932;2023-12-20T01:57:56;16.60;;;10.03;;
7965;SDS011;4028;43.272;26.932;2023-12-20T02:00:23;16.97;;;10.87;;
7965;SDS011;4028;43.272;26.932;2023-12-20T02:02:52;12.37;;;9.57;;
7965;SDS011;4028;43.272;26.932;2023-12-20T02:05:20;14.20;;;10.00;;
7965;SDS011;4028;43.272;26.932;2023-12-20T02:07:46;13.33;;;9.90;;
7965;SDS011;4028;43.272;26.932;2023-12-20T02:10:12;14.63;;;9.80;;
7965;SDS011;4028;43.272;26.932;2023-12-20T02:12:38;14.97;;;9.47;;
7965;SDS011;4028;43.272;26.932;2023-12-20T02:15:03;13.93;;;9.83;;
7965;SDS011;4028;43.272;26.932;2023-12-20T02:17:30;14.67;;;10.10;;
7965;SDS011;4028;43.272;26.932;2023-12-20T02:19:57;14.37;;;9.73;;
7965;SDS011;4028;43.272;26.932;2023-12-20T02:22:22;16.67;;;10.30;;
7965;SDS011;4028;43.272;26.932;2023-12-20T02:24:48;14.37;;;10.23;;
7965;SDS011;4028;43.272;26.932;2023-12-20T02:27:13;16.20;;;9.97;;
7965;SDS011;4028;43.272;26.932;2023-12-20T02:29:43;17.97;;;11.23;;
7965;SDS011;4028;43.272;26.932;2023-12-20T02:32:08;16.63;;;11.27;;
7965;SDS011;4028;43.272;26.932;2023-12-20T02:34:34;16.10;;;10.03;;
7965;SDS011;4028;43.272;26.932;2023-12-20T02:36:59;14.20;;;9.30;;
7965;SDS011;4028;43.272;26.932;2023-12-20T02:39:25;16.13;;;10.30;;
7965;SDS011;4028;43.272;26.932;2023-12-20T02:41:50;18.17;;;10.90;;
7965;SDS011;4028;43.272;26.932;2023-12-20T02:44:15;16.70;;;10.47;;
7965;SDS011;4028;43.272;26.932;2023-12-20T02:46:41;16.87;;;10.60;;
7965;SDS011;4028;43.272;26.932;2023-12-20T02:49:07;18.33;;;10.87;;
7965;SDS011;4028;43.272;26.932;2023-12-20T02:51:32;16.77;;;11.27;;
7965;SDS011;4028;43.272;26.932;2023-12-20T02:53:58;15.87;;;10.27;;
7965;SDS011;4028;43.272;26.932;2023-12-20T02:56:23;18.60;;;11.07;;
7965;SDS011;4028;43.272;26.932;2023-12-20T02:58:49;15.93;;;9.47;;
7965;SDS011;4028;43.272;26.932;2023-12-20T03:01:14;20.40;;;10.47;;
7965;SDS011;4028;43.272;26.932;2023-12-20T03:03:40;15.10;;;9.17;;
7965;SDS011;4028;43.272;26.932;2023-12-20T03:06:05;12.97;;;8.60;;
7965;SDS011;4028;43.272;26.932;2023-12-20T03:08:31;17.23;;;9.27;;
7965;SDS011;4028;43.272;26.932;2023-12-20T03:10:56;15.23;;;9.20;;
7965;SDS011;4028;43.272;26.932;2023-12-20T03:13:23;17.07;;;9.97;;
7965;SDS011;4028;43.272;26.932;2023-12-20T03:15:49;17.90;;;11.13;;
7965;SDS011;4028;43.272;26.932;2023-12-20T03:18:14;11.70;;;8.63;;
7965;SDS011;4028;43.272;26.932;2023-12-20T03:20:40;15.97;;;9.37;;
7965;SDS011;4028;43.272;26.932;2023-12-20T03:23:06;14.03;;;8.93;;
7965;SDS011;4028;43.272;26.932;2023-12-20T03:25:32;13.10;;;8.00;;
7965;SDS011;4028;43.272;26.932;2023-12-20T03:27:57;13.90;;;9.03;;
7965;SDS011;4028;43.272;26.932;2023-12-20T03:30:23;15.40;;;9.07;;
7965;SDS011;4028;43.272;26.932;2023-12-20T03:32:48;16.77;;;8.97;;
7965;SDS011;4028;43.272;26.932;2023-12-20T03:35:14;11.83;;;8.03;;
7965;SDS011;4028;43.272;26.932;2023-12-20T03:37:39;12.13;;;8.90;;
7965;SDS011;4028;43.272;26.932;2023-12-20T03:40:05;12.60;;;8.40;;
7965;SDS011;4028;43.272;26.932;2023-12-20T03:42:31;18.73;;;9.17;;
7965;SDS011;4028;43.272;26.932;2023-12-20T03:44:56;14.57;;;9.27;;
7965;SDS011;4028;43.272;26.932;2023-12-20T03:47:21;14.90;;;9.17;;
7965;SDS011;4028;43.272;26.932;2023-12-20T03:49:47;14.67;;;9.60;;
7965;SDS011;4028;43.272;26.932;2023-12-20T03:52:12;10.93;;;8.13;;
7965;SDS011;4028;43.272;26.932;2023-12-20T03:54:38;13.80;;;8.17;;
7965;SDS011;4028;43.272;26.932;2023-12-20T03:57:04;12.77;;;8.53;;
7965;SDS011;4028;43.272;26.932;2023-12-20T03:59:29;12.77;;;8.60;;
7965;SDS011;4028;43.272;26.932;2023-12-20T04:01:55;12.13;;;8.37;;
7965;SDS011;4028;43.272;26.932;2023-12-20T04:04:20;15.87;;;8.97;;
7965;SDS011;4028;43.272;26.932;2023-12-20T04:06:46;11.97;;;8.40;;
7965;SDS011;4028;43.272;26.932;2023-12-20T04:09:11;13.40;;;9.47;;
7965;SDS011;4028;43.272;26.932;2023-12-20T04:11:37;13.57;;;9.17;;
7965;SDS011;4028;43.272;26.932;2023-12-20T04:14:03;14.57;;;9.53;;
7965;SDS011;4028;43.272;26.932;2023-12-20T04:16:30;13.53;;;8.57;;
7965;SDS011;4028;43.272;26.932;2023-12-20T04:18:55;17.20;;;9.43;;
7965;SDS011;4028;43.272;26.932;2023-12-20T04:21:21;14.90;;;9.07;;
7965;SDS011;4028;43.272;26.932;2023-12-20T04:23:46;14.50;;;9.80;;
7965;SDS011;4028;43.272;26.932;2023-12-20T04:26:12;11.97;;;8.27;;
7965;SDS011;4028;43.272;26.932;2023-12-20T04:28:37;14.20;;;8.47;;
7965;SDS011;4028;43.272;26.932;2023-12-20T04:31:03;13.23;;;8.90;;
7965;SDS011;4028;43.272;26.932;2023-12-20T04:33:28;12.27;;;8.13;;
7965;SDS011;4028;43.272;26.932;2023-12-20T04:35:54;13.13;;;8.47;;
7965;SDS011;4028;43.272;26.932;2023-12-20T04:38:19;14.43;;;8.20;;
7965;SDS011;4028;43.272;26.932;2023-12-20T04:40:45;18.43;;;9.10;;
7965;SDS011;4028;43.272;26.932;2023-12-20T04:43:10;19.23;;;10.47;;
7965;SDS011;4028;43.272;26.932;2023-12-20T04:45:35;39.33;;;24.27;;
7965;SDS011;4028;43.272;26.932;2023-12-20T04:48:01;31.77;;;20.50;;
7965;SDS011;4028;43.272;26.932;2023-12-20T04:50:27;37.50;;;24.93;;
7965;SDS011;4028;43.272;26.932;2023-12-20T04:52:53;38.63;;;27.60;;
7965;SDS011;4028;43.272;26.932;2023-12-20T04:55:18;40.20;;;26.70;;
7965;SDS011;4028;43.272;26.932;2023-12-20T04:57:44;31.70;;;25.07;;
7965;SDS011;4028;43.272;26.932;2023-12-20T05:00:09;29.27;;;22.63;;
7965;SDS011;4028;43.272;26.932;2023-12-20T05:02:36;29.77;;;23.43;;
7965;SDS011;4028;43.272;26.932;2023-12-20T05:05:01;32.47;;;26.77;;
7965;SDS011;4028;43.272;26.932;2023-12-20T05:07:27;36.57;;;29.20;;
7965;SDS011;4028;43.272;26.932;2023-12-20T05:09:53;33.10;;;26.93;;
7965;SDS011;4028;43.272;26.932;2023-12-20T05:12:18;32.57;;;27.00;;
7965;SDS011;4028;43.272;26.932;2023-12-20T05:14:44;37.77;;;31.33;;
7965;SDS011;4028;43.272;26.932;2023-12-20T05:17:11;27.00;;;16.33;;
7965;SDS011;4028;43.272;26.932;2023-12-20T05:19:36;22.30;;;14.57;;
7965;SDS011;4028;43.272;26.932;2023-12-20T05:22:02;22.80;;;16.33;;
7965;SDS011;4028;43.272;26.932;2023-12-20T05:24:27;24.97;;;16.43;;
7965;SDS011;4028;43.272;26.932;2023-12-20T05:26:53;43.07;;;27.20;;
7965;SDS011;4028;43.272;26.932;2023-12-20T05:29:19;38.80;;;26.67;;
7965;SDS011;4028;43.272;26.932;2023-12-20T05:31:44;39.33;;;29.43;;
7965;SDS011;4028;43.272;26.932;2023-12-20T05:34:10;46.77;;;33.90;;
7965;SDS011;4028;43.272;26.932;2023-12-20T05:36:36;39.70;;;27.43;;
7965;SDS011;4028;43.272;26.932;2023-12-20T05:39:01;33.90;;;24.63;;
7965;SDS011;4028;43.272;26.932;2023-12-20T05:41:28;30.33;;;21.53;;
7965;SDS011;4028;43.272;26.932;2023-12-20T05:43:54;31.83;;;20.53;;
7965;SDS011;4028;43.272;26.932;2023-12-20T05:46:19;34.90;;;20.90;;
7965;SDS011;4028;43.272;26.932;2023-12-20T05:48:46;43.00;;;24.23;;
7965;SDS011;4028;43.272;26.932;2023-12-20T05:51:12;34.63;;;23.50;;
7965;SDS011;4028;43.272;26.932;2023-12-20T05:53:41;40.33;;;26.50;;
7965;SDS011;4028;43.272;26.932;2023-12-20T05:56:06;71.53;;;49.80;;
7965;SDS011;4028;43.272;26.932;2023-12-20T05:58:32;82.53;;;60.87;;
7965;SDS011;4028;43.272;26.932;2023-12-20T06:00:58;50.10;;;33.63;;
7965;SDS011;4028;43.272;26.932;2023-12-20T06:03:24;45.10;;;26.33;;
7965;SDS011;4028;43.272;26.932;2023-12-20T06:05:49;41.10;;;25.33;;
7965;SDS011;4028;43.272;26.932;2023-12-20T06:08:15;42.07;;;24.23;;
7965;SDS011;4028;43.272;26.932;2023-12-20T06:10:40;47.57;;;25.87;;
7965;SDS011;4028;43.272;26.932;2023-12-20T06:13:06;56.83;;;42.20;;
7965;SDS011;4028;43.272;26.932;2023-12-20T06:15:32;60.27;;;43.17;;
7965;SDS011;4028;43.272;26.932;2023-12-20T06:17:58;43.93;;;32.03;;
7965;SDS011;4028;43.272;26.932;2023-12-20T06:20:23;40.80;;;29.63;;
7965;SDS011;4028;43.272;26.932;2023-12-20T06:22:50;43.37;;;29.57;;
7965;SDS011;4028;43.272;26.932;2023-12-20T06:25:16;38.07;;;25.53;;
7965;SDS011;4028;43.272;26.932;2023-12-20T06:27:41;30.97;;;24.03;;
7965;SDS011;4028;43.272;26.932;2023-12-20T06:30:07;34.90;;;23.83;;
7965;SDS011;4028;43.272;26.932;2023-12-20T06:32:34;76.03;;;56.43;;
7965;SDS011;4028;43.272;26.932;2023-12-20T06:35:00;64.03;;;48.47;;
7965;SDS011;4028;43.272;26.932;2023-12-20T06:37:25;37.43;;;25.80;;
7965;SDS011;4028;43.272;26.932;2023-12-20T06:39:51;40.23;;;26.07;;
7965;SDS011;4028;43.272;26.932;2023-12-20T06:42:16;42.63;;;32.53;;
7965;SDS011;4028;43.272;26.932;2023-12-20T06:44:42;36.73;;;25.73;;
7965;SDS011;4028;43.272;26.932;2023-12-20T06:47:09;34.37;;;24.10;;
7965;SDS011;4028;43.272;26.932;2023-12-20T06:49:34;42.37;;;25.73;;
7965;SDS011;4028;43.272;26.932;2023-12-20T06:51:59;47.67;;;28.27;;
7965;SDS011;4028;43.272;26.932;2023-12-20T06:54:25;40.73;;;29.30;;
7965;SDS011;4028;43.272;26.932;2023-12-20T06:56:50;39.80;;;27.97;;
7965;SDS011;4028;43.272;26.932;2023-12-20T06:59:16;41.70;;;26.30;;
7965;SDS011;4028;43.272;26.932;2023-12-20T07:01:41;37.43;;;25.43;;
7965;SDS011;4028;43.272;26.932;2023-12-20T07:04:08;33.57;;;23.07;;
7965;SDS011;4028;43.272;26.932;2023-12-20T07:06:34;40.40;;;26.27;;
7965;SDS011;4028;43.272;26.932;2023-12-20T07:08:59;39.60;;;24.77;;
7965;SDS011;4028;43.272;26.932;2023-12-20T07:11:24;40.27;;;24.67;;
7965;SDS011;4028;43.272;26.932;2023-12-20T07:13:51;35.00;;;22.30;;
7965;SDS011;4028;43.272;26.932;2023-12-20T07:16:16;33.13;;;20.50;;
7965;SDS011;4028;43.272;26.932;2023-12-20T07:18:42;37.40;;;22.03;;
7965;SDS011;4028;43.272;26.932;2023-12-20T07:21:07;40.47;;;22.40;;
7965;SDS011;4028;43.272;26.932;2023-12-20T07:23:33;32.23;;;19.47;;
7965;SDS011;4028;43.272;26.932;2023-12-20T07:25:59;28.43;;;17.47;;
7965;SDS011;4028;43.272;26.932;2023-12-20T07:28:24;24.57;;;15.17;;
7965;SDS011;4028;43.272;26.932;2023-12-20T07:30:50;21.43;;;13.53;;
7965;SDS011;4028;43.272;26.932;2023-12-20T07:33:15;18.13;;;12.40;;
7965;SDS011;4028;43.272;26.932;2023-12-20T07:35:41;15.70;;;11.60;;
7965;SDS011;4028;43.272;26.932;2023-12-20T07:38:06;18.17;;;10.60;;
7965;SDS011;4028;43.272;26.932;2023-12-20T07:40:32;16.00;;;11.03;;
7965;SDS011;4028;43.272;26.932;2023-12-20T07:42:57;19.47;;;12.53;;
7965;SDS011;4028;43.272;26.932;2023-12-20T07:45:23;22.70;;;14.00;;
7965;SDS011;4028;43.272;26.932;2023-12-20T07:47:48;20.53;;;14.07;;
7965;SDS011;4028;43.272;26.932;2023-12-20T07:50:15;17.87;;;12.40;;
7965;SDS011;4028;43.272;26.932;2023-12-20T07:52:40;21.53;;;12.53;;
7965;SDS011;4028;43.272;26.932;2023-12-20T07:55:06;17.13;;;10.30;;
7965;SDS011;4028;43.272;26.932;2023-12-20T07:57:32;11.73;;;9.80;;
7965;SDS011;4028;43.272;26.932;2023-12-20T07:59:57;16.40;;;10.23;;
7965;SDS011;4028;43.272;26.932;2023-12-20T08:02:23;16.77;;;10.03;;
7965;SDS011;4028;43.272;26.932;2023-12-20T08:04:48;12.17;;;9.67;;
7965;SDS011;4028;43.272;26.932;2023-12-20T08:07:14;16.27;;;10.20;;
7965;SDS011;4028;43.272;26.932;2023-12-20T08:09:39;12.43;;;9.00;;
7965;SDS011;4028;43.272;26.932;2023-12-20T08:12:05;13.00;;;9.97;;
7965;SDS011;4028;43.272;26.932;2023-12-20T08:14:30;16.27;;;10.57;;
7965;SDS011;4028;43.272;26.932;2023-12-20T08:16:56;16.20;;;10.37;;
7965;SDS011;4028;43.272;26.932;2023-12-20T08:19:22;17.70;;;9.83;;
7965;SDS011;4028;43.272;26.932;2023-12-20T08:21:47;11.07;;;7.63;;
7965;SDS011;4028;43.272;26.932;2023-12-20T08:24:13;13.57;;;9.00;;
7965;SDS011;4028;43.272;26.932;2023-12-20T08:26:38;12.83;;;8.93;;
7965;SDS011;4028;43.272;26.932;2023-12-20T08:29:04;14.30;;;9.77;;
7965;SDS011;4028;43.272;26.932;2023-12-20T08:31:29;18.50;;;10.20;;
7965;SDS011;4028;43.272;26.932;2023-12-20T08:33:54;11.37;;;9.93;;
7965;SDS011;4028;43.272;26.932;2023-12-20T08:36:20;15.70;;;9.60;;
7965;SDS011;4028;43.272;26.932;2023-12-20T08:38:48;11.80;;;8.60;;
7965;SDS011;4028;43.272;26.932;2023-12-20T08:41:13;15.17;;;10.07;;
7965;SDS011;4028;43.272;26.932;2023-12-20T08:43:41;18.70;;;10.00;;
7965;SDS011;4028;43.272;26.932;2023-12-20T08:46:07;14.07;;;8.93;;
7965;SDS011;4028;43.272;26.932;2023-12-20T08:48:34;14.40;;;9.77;;
7965;SDS011;4028;43.272;26.932;2023-12-20T08:51:00;13.20;;;9.67;;
7965;SDS011;4028;43.272;26.932;2023-12-20T08:53:25;13.67;;;9.77;;
7965;SDS011;4028;43.272;26.932;2023-12-20T08:55:51;12.17;;;9.43;;
7965;SDS011;4028;43.272;26.932;2023-12-20T08:58:17;13.60;;;10.70;;
7965;SDS011;4028;43.272;26.932;2023-12-20T09:00:43;11.50;;;8.57;;
7965;SDS011;4028;43.272;26.932;2023-12-20T09:03:08;11.93;;;9.50;;
7965;SDS011;4028;43.272;26.932;2023-12-20T09:05:34;11.33;;;9.53;;
7965;SDS011;4028;43.272;26.932;2023-12-20T09:08:00;12.90;;;10.10;;
7965;SDS011;4028;43.272;26.932;2023-12-20T09:10:26;14.97;;;9.40;;
7965;SDS011;4028;43.272;26.932;2023-12-20T09:12:52;13.10;;;9.43;;
7965;SDS011;4028;43.272;26.932;2023-12-20T09:15:24;14.50;;;9.67;;
7965;SDS011;4028;43.272;26.932;2023-12-20T09:17:50;11.27;;;8.83;;
7965;SDS011;4028;43.272;26.932;2023-12-20T09:20:16;18.40;;;9.67;;
7965;SDS011;4028;43.272;26.932;2023-12-20T09:22:41;13.60;;;9.50;;
7965;SDS011;4028;43.272;26.932;2023-12-20T09:25:07;22.63;;;10.17;;
7965;SDS011;4028;43.272;26.932;2023-12-20T09:27:33;20.03;;;9.67;;
7965;SDS011;4028;43.272;26.932;2023-12-20T09:29:58;18.10;;;10.00;;
7965;SDS011;4028;43.272;26.932;2023-12-20T09:32:24;17.73;;;10.80;;
7965;SDS011;4028;43.272;26.932;2023-12-20T09:34:50;13.90;;;10.57;;
7965;SDS011;4028;43.272;26.932;2023-12-20T09:37:15;18.03;;;10.03;;
7965;SDS011;4028;43.272;26.932;2023-12-20T09:39:41;23.50;;;11.30;;
7965;SDS011;4028;43.272;26.932;2023-12-20T09:42:06;23.93;;;11.67;;
7965;SDS011;4028;43.272;26.932;2023-12-20T09:44:33;18.50;;;11.47;;
7965;SDS011;4028;43.272;26.932;2023-12-20T09:47:01;23.20;;;12.10;;
7965;SDS011;4028;43.272;26.932;2023-12-20T09:49:28;22.97;;;12.17;;
7965;SDS011;4028;43.272;26.932;2023-12-20T09:51:55;20.03;;;12.20;;
7965;SDS011;4028;43.272;26.932;2023-12-20T09:54:21;22.13;;;13.03;;
7965;SDS011;4028;43.272;26.932;2023-12-20T09:56:48;31.27;;;13.70;;
7965;SDS011;4028;43.272;26.932;2023-12-20T09:59:13;25.70;;;13.63;;
7965;SDS011;4028;43.272;26.932;2023-12-20T10:01:40;19.80;;;13.03;;
7965;SDS011;4028;43.272;26.932;2023-12-20T10:04:06;28.27;;;14.60;;
7965;SDS011;4028;43.272;26.932;2023-12-20T10:06:37;20.00;;;12.40;;
7965;SDS011;4028;43.272;26.932;2023-12-20T10:09:11;22.47;;;13.07;;
7965;SDS011;4028;43.272;26.932;2023-12-20T10:11:37;13.07;;;9.40;;
7965;SDS011;4028;43.272;26.932;2023-12-20T10:14:04;19.93;;;10.97;;
7965;SDS011;4028;43.272;26.932;2023-12-20T10:16:31;21.47;;;10.10;;
7965;SDS011;4028;43.272;26.932;2023-12-20T10:18:58;14.63;;;9.60;;
7965;SDS011;4028;43.272;26.932;2023-12-20T10:21:24;14.53;;;9.30;;
7965;SDS011;4028;43.272;26.932;2023-12-20T10:23:56;14.67;;;8.70;;
7965;SDS011;4028;43.272;26.932;2023-12-20T10:26:23;11.07;;;7.10;;
7965;SDS011;4028;43.272;26.932;2023-12-20T10:28:50;14.57;;;5.70;;
7965;SDS011;4028;43.272;26.932;2023-12-20T10:31:30;13.47;;;6.57;;
7965;SDS011;4028;43.272;26.932;2023-12-20T10:33:56;11.67;;;6.50;;
7965;SDS011;4028;43.272;26.932;2023-12-20T10:36:23;11.13;;;5.60;;
7965;SDS011;4028;43.272;26.932;2023-12-20T10:38:49;14.70;;;5.90;;
7965;SDS011;4028;43.272;26.932;2023-12-20T10:41:17;7.53;;;5.17;;
7965;SDS011;4028;43.272;26.932;2023-12-20T10:43:52;11.47;;;5.87;;
7965;SDS011;4028;43.272;26.932;2023-12-20T10:46:20;8.40;;;5.93;;
7965;SDS011;4028;43.272;26.932;2023-12-20T10:48:45;14.17;;;5.90;;
7965;SDS011;4028;43.272;26.932;2023-12-20T10:51:14;8.63;;;7.13;;
7965;SDS011;4028;43.272;26.932;2023-12-20T10:53:42;6.67;;;5.20;;
7965;SDS011;4028;43.272;26.932;2023-12-20T10:56:08;8.87;;;4.87;;
7965;SDS011;4028;43.272;26.932;2023-12-20T10:58:40;9.33;;;6.27;;
7965;SDS011;4028;43.272;26.932;2023-12-20T11:01:08;8.93;;;7.17;;
7965;SDS011;4028;43.272;26.932;2023-12-20T11:03:34;10.50;;;7.00;;
7965;SDS011;4028;43.272;26.932;2023-12-20T11:06:05;7.90;;;5.43;;
7965;SDS011;4028;43.272;26.932;2023-12-20T11:08:53;6.83;;;4.43;;
7965;SDS011;4028;43.272;26.932;2023-12-20T11:11:40;9.97;;;4.87;;
7965;SDS011;4028;43.272;26.932;2023-12-20T11:14:46;7.57;;;4.93;;
7965;SDS011;4028;43.272;26.932;2023-12-20T11:17:14;9.37;;;5.57;;
7965;SDS011;4028;43.272;26.932;2023-12-20T11:22:22;5.57;;;4.87;;
7965;SDS011;4028;43.272;26.932;2023-12-20T11:24:50;5.53;;;4.93;;
7965;SDS011;4028;43.272;26.932;2023-12-20T11:27:18;6.70;;;4.63;;
7965;SDS011;4028;43.272;26.932;2023-12-20T11:29:50;8.47;;;4.83;;
7965;SDS011;4028;43.272;26.932;2023-12-20T11:35:16;7.53;;;4.03;;
7965;SDS011;4028;43.272;26.932;2023-12-20T11:37:44;5.20;;;3.30;;
7965;SDS011;4028;43.272;26.932;2023-12-20T11:40:13;10.93;;;3.90;;
7965;SDS011;4028;43.272;26.932;2023-12-20T11:42:41;7.43;;;4.10;;
7965;SDS011;4028;43.272;26.932;2023-12-20T11:45:08;11.63;;;4.00;;
7965;SDS011;4028;43.272;26.932;2023-12-20T11:47:34;15.87;;;4.87;;
7965;SDS011;4028;43.272;26.932;2023-12-20T11:50:00;10.27;;;4.63;;
7965;SDS011;4028;43.272;26.932;2023-12-20T11:52:28;6.87;;;4.27;;
7965;SDS011;4028;43.272;26.932;2023-12-20T11:54:54;4.60;;;4.20;;
7965;SDS011;4028;43.272;26.932;2023-12-20T11:57:20;7.33;;;4.50;;
7965;SDS011;4028;43.272;26.932;2023-12-20T11:59:45;7.47;;;4.83;;
7965;SDS011;4028;43.272;26.932;2023-12-20T12:02:11;10.17;;;5.23;;
7965;SDS011;4028;43.272;26.932;2023-12-20T12:04:37;6.07;;;4.20;;
7965;SDS011;4028;43.272;26.932;2023-12-20T12:07:03;9.43;;;4.40;;
7965;SDS011;4028;43.272;26.932;2023-12-20T12:09:28;6.97;;;4.80;;
7965;SDS011;4028;43.272;26.932;2023-12-20T12:11:54;9.47;;;4.73;;
7965;SDS011;4028;43.272;26.932;2023-12-20T12:14:20;7.87;;;4.43;;
7965;SDS011;4028;43.272;26.932;2023-12-20T12:16:45;10.23;;;4.17;;
7965;SDS011;4028;43.272;26.932;2023-12-20T12:19:24;6.47;;;4.50;;
7965;SDS011;4028;43.272;26.932;2023-12-20T12:21:51;14.37;;;5.10;;
7965;SDS011;4028;43.272;26.932;2023-12-20T12:24:42;13.27;;;5.03;;
7965;SDS011;4028;43.272;26.932;2023-12-20T12:27:09;17.23;;;4.47;;
7965;SDS011;4028;43.272;26.932;2023-12-20T12:29:35;7.17;;;4.90;;
7965;SDS011;4028;43.272;26.932;2023-12-20T12:32:04;8.20;;;4.90;;
7965;SDS011;4028;43.272;26.932;2023-12-20T12:34:32;9.57;;;5.10;;
7965;SDS011;4028;43.272;26.932;2023-12-20T12:36:57;8.17;;;5.27;;
7965;SDS011;4028;43.272;26.932;2023-12-20T12:39:23;8.17;;;4.23;;
7965;SDS011;4028;43.272;26.932;2023-12-20T12:41:52;14.90;;;5.97;;
7965;SDS011;4028;43.272;26.932;2023-12-20T12:44:18;7.50;;;4.97;;
7965;SDS011;4028;43.272;26.932;2023-12-20T12:46:47;9.73;;;4.80;;
7965;SDS011;4028;43.272;26.932;2023-12-20T12:49:16;5.17;;;4.50;;
7965;SDS011;4028;43.272;26.932;2023-12-20T12:51:42;10.20;;;5.03;;
7965;SDS011;4028;43.272;26.932;2023-12-20T12:54:08;9.40;;;5.00;;
7965;SDS011;4028;43.272;26.932;2023-12-20T12:56:34;10.50;;;4.90;;
7965;SDS011;4028;43.272;26.932;2023-12-20T12:59:01;9.00;;;4.93;;
7965;SDS011;4028;43.272;26.932;2023-12-20T13:01:26;8.67;;;5.50;;
7965;SDS011;4028;43.272;26.932;2023-12-20T13:03:52;8.00;;;6.37;;
7965;SDS011;4028;43.272;26.932;2023-12-20T13:06:17;9.37;;;5.73;;
7965;SDS011;4028;43.272;26.932;2023-12-20T13:08:43;10.43;;;6.73;;
7965;SDS011;4028;43.272;26.932;2023-12-20T13:11:09;10.97;;;6.80;;
7965;SDS011;4028;43.272;26.932;2023-12-20T13:13:35;16.00;;;7.37;;
7965;SDS011;4028;43.272;26.932;2023-12-20T13:16:00;17.70;;;8.17;;
7965;SDS011;4028;43.272;26.932;2023-12-20T13:18:26;16.40;;;8.23;;
7965;SDS011;4028;43.272;26.932;2023-12-20T13:20:51;17.57;;;8.87;;
7965;SDS011;4028;43.272;26.932;2023-12-20T13:23:17;17.63;;;8.33;;
7965;SDS011;4028;43.272;26.932;2023-12-20T13:25:45;15.00;;;7.73;;
7965;SDS011;4028;43.272;26.932;2023-12-20T13:28:11;13.40;;;9.37;;
7965;SDS011;4028;43.272;26.932;2023-12-20T13:30:38;13.97;;;9.20;;
7965;SDS011;4028;43.272;26.932;2023-12-20T13:33:04;22.23;;;9.40;;
7965;SDS011;4028;43.272;26.932;2023-12-20T13:35:30;20.83;;;10.17;;
7965;SDS011;4028;43.272;26.932;2023-12-20T13:37:57;27.60;;;11.63;;
7965;SDS011;4028;43.272;26.932;2023-12-20T13:40:23;38.40;;;13.83;;
7965;SDS011;4028;43.272;26.932;2023-12-20T13:42:48;27.83;;;12.00;;
7965;SDS011;4028;43.272;26.932;2023-12-20T13:45:14;22.53;;;11.50;;
7965;SDS011;4028;43.272;26.932;2023-12-20T13:47:39;23.80;;;13.00;;
7965;SDS011;4028;43.272;26.932;2023-12-20T13:50:05;29.83;;;12.90;;
7965;SDS011;4028;43.272;26.932;2023-12-20T13:52:31;25.67;;;14.33;;
7965;SDS011;4028;43.272;26.932;2023-12-20T13:54:56;34.23;;;21.10;;
7965;SDS011;4028;43.272;26.932;2023-12-20T13:57:22;40.37;;;21.10;;
7965;SDS011;4028;43.272;26.932;2023-12-20T13:59:47;34.37;;;19.40;;
7965;SDS011;4028;43.272;26.932;2023-12-20T14:02:13;37.53;;;19.50;;
7965;SDS011;4028;43.272;26.932;2023-12-20T14:04:38;28.47;;;17.17;;
7965;SDS011;4028;43.272;26.932;2023-12-20T14:07:04;30.27;;;17.63;;
7965;SDS011;4028;43.272;26.932;2023-12-20T14:09:30;35.83;;;20.60;;
7965;SDS011;4028;43.272;26.932;2023-12-20T14:11:56;38.57;;;26.37;;
7965;SDS011;4028;43.272;26.932;2023-12-20T14:14:22;45.23;;;29.27;;
7965;SDS011;4028;43.272;26.932;2023-12-20T14:16:47;51.03;;;31.40;;
7965;SDS011;4028;43.272;26.932;2023-12-20T14:19:13;54.27;;;34.33;;
7965;SDS011;4028;43.272;26.932;2023-12-20T14:21:38;42.00;;;23.03;;
7965;SDS011;4028;43.272;26.932;2023-12-20T14:24:04;46.63;;;22.30;;
7965;SDS011;4028;43.272;26.932;2023-12-20T14:26:30;34.30;;;18.63;;
7965;SDS011;4028;43.272;26.932;2023-12-20T14:28:56;32.83;;;21.53;;
7965;SDS011;4028;43.272;26.932;2023-12-20T14:31:21;38.60;;;24.00;;
7965;SDS011;4028;43.272;26.932;2023-12-20T14:33:49;43.47;;;25.67;;
7965;SDS011;4028;43.272;26.932;2023-12-20T14:36:16;39.27;;;23.53;;
7965;SDS011;4028;43.272;26.932;2023-12-20T14:38:43;40.70;;;24.87;;
7965;SDS011;4028;43.272;26.932;2023-12-20T14:41:09;38.77;;;23.87;;
7965;SDS011;4028;43.272;26.932;2023-12-20T14:43:34;33.33;;;19.20;;